sensor_id;sensor_type;location;lat;lon;timestamp;P1;durP1;ratioP1;P2;durP2;ratioP2
19364;SDS011;9818;48.382;10.850;2022-12-29T00:00:15;3.20;;;2.37;;
19364;SDS011;9818;48.382;10.850;2022-12-29T00:02:44;2.23;;;2.00;;
19364;SDS011;9818;48.382;10.850;2022-12-29T01:19:55;1.67;;;1.37;;
19364;SDS011;9818;48.382;10.850;2022-12-29T01:22:24;2.43;;;1.80;;
19364;SDS011;9818;48.382;10.850;2022-12-29T01:24:52;1.87;;;1.67;;
19364;SDS011;9818;48.382;10.850;2022-12-29T01:27:21;2.70;;;1.90;;
19364;SDS011;9818;48.382;10.850;2022-12-29T01:29:50;2.47;;;2.00;;
19364;SDS011;9818;48.382;10.850;2022-12-29T01:32:18;2.30;;;1.93;;
19364;SDS011;9818;48.382;10.850;2022-12-29T01:34:47;2.40;;;1.87;;
19364;SDS011;9818;48.382;10.850;2022-12-29T01:37:18;2.43;;;2.00;;
19364;SDS011;9818;48.382;10.850;2022-12-29T01:39:47;2.00;;;1.80;;
19364;SDS011;9818;48.382;10.850;2022-12-29T01:42:17;1.83;;;1.60;;
19364;SDS011;9818;48.382;10.850;2022-12-29T01:44:49;1.60;;;1.50;;
19364;SDS011;9818;48.382;10.850;2022-12-29T01:47:30;2.60;;;1.80;;
19364;SDS011;9818;48.382;10.850;2022-12-29T01:50:04;2.80;;;1.70;;
19364;SDS011;9818;48.382;10.850;2022-12-29T01:52:40;1.90;;;1.60;;
19364;SDS011;9818;48.382;10.850;2022-12-29T01:55:12;1.47;;;1.37;;
19364;SDS011;9818;48.382;10.850;2022-12-29T01:57:42;2.67;;;1.80;;
19364;SDS011;9818;48.382;10.850;2022-12-29T02:00:15;1.90;;;1.60;;
19364;SDS011;9818;48.382;10.850;2022-12-29T02:02:44;1.93;;;1.40;;
19364;SDS011;9818;48.382;10.850;2022-12-29T02:05:17;2.17;;;1.90;;
19364;SDS011;9818;48.382;10.850;2022-12-29T02:07:51;1.60;;;1.50;;
19364;SDS011;9818;48.382;10.850;2022-12-29T02:10:21;2.43;;;1.87;;
19364;SDS011;9818;48.382;10.850;2022-12-29T02:12:52;2.53;;;1.70;;
19364;SDS011;9818;48.382;10.850;2022-12-29T02:15:22;1.50;;;1.40;;
19364;SDS011;9818;48.382;10.850;2022-12-29T02:18:04;2.30;;;1.60;;
19364;SDS011;9818;48.382;10.850;2022-12-29T02:20:50;1.70;;;1.50;;
19364;SDS011;9818;48.382;10.850;2022-12-29T02:23:51;3.43;;;1.60;;
19364;SDS011;9818;48.382;10.850;2022-12-29T02:26:46;1.40;;;1.30;;
19364;SDS011;9818;48.382;10.850;2022-12-29T02:29:35;1.20;;;1.10;;
19364;SDS011;9818;48.382;10.850;2022-12-29T02:32:23;2.10;;;1.40;;
19364;SDS011;9818;48.382;10.850;2022-12-29T02:35:05;2.20;;;1.70;;
19364;SDS011;9818;48.382;10.850;2022-12-29T02:37:41;1.40;;;1.30;;
19364;SDS011;9818;48.382;10.850;2022-12-29T02:40:18;1.90;;;1.50;;
19364;SDS011;9818;48.382;10.850;2022-12-29T02:42:51;1.73;;;1.20;;
19364;SDS011;9818;48.382;10.850;2022-12-29T02:45:31;1.77;;;1.30;;
19364;SDS011;9818;48.382;10.850;2022-12-29T02:48:07;1.47;;;1.23;;
19364;SDS011;9818;48.382;10.850;2022-12-29T02:50:43;1.43;;;1.10;;
19364;SDS011;9818;48.382;10.850;2022-12-29T02:53:18;1.30;;;1.20;;
19364;SDS011;9818;48.382;10.850;2022-12-29T02:56:09;1.43;;;1.20;;
19364;SDS011;9818;48.382;10.850;2022-12-29T02:58:35;1.37;;;1.20;;
19364;SDS011;9818;48.382;10.850;2022-12-29T03:01:07;1.40;;;1.30;;
19364;SDS011;9818;48.382;10.850;2022-12-29T03:03:54;1.63;;;1.30;;
19364;SDS011;9818;48.382;10.850;2022-12-29T03:06:33;1.30;;;1.13;;
19364;SDS011;9818;48.382;10.850;2022-12-29T03:09:11;1.40;;;1.30;;
19364;SDS011;9818;48.382;10.850;2022-12-29T03:11:46;1.53;;;1.13;;
19364;SDS011;9818;48.382;10.850;2022-12-29T03:14:38;1.20;;;1.10;;
19364;SDS011;9818;48.382;10.850;2022-12-29T03:17:27;1.87;;;1.37;;
19364;SDS011;9818;48.382;10.850;2022-12-29T03:20:06;2.43;;;1.20;;
19364;SDS011;9818;48.382;10.850;2022-12-29T03:22:38;1.20;;;1.10;;
19364;SDS011;9818;48.382;10.850;2022-12-29T03:25:12;2.00;;;1.33;;
19364;SDS011;9818;48.382;10.850;2022-12-29T03:27:46;1.20;;;1.10;;
19364;SDS011;9818;48.382;10.850;2022-12-29T03:30:19;1.70;;;1.40;;
19364;SDS011;9818;48.382;10.850;2022-12-29T05:07:37;1.90;;;0.87;;
19364;SDS011;9818;48.382;10.850;2022-12-29T07:56:34;1.67;;;1.10;;
19364;SDS011;9818;48.382;10.850;2022-12-29T07:59:03;1.97;;;1.23;;
19364;SDS011;9818;48.382;10.850;2022-12-29T08:01:32;1.27;;;1.17;;
19364;SDS011;9818;48.382;10.850;2022-12-29T08:04:01;1.23;;;1.10;;
19364;SDS011;9818;48.382;10.850;2022-12-29T08:06:30;3.53;;;1.30;;
19364;SDS011;9818;48.382;10.850;2022-12-29T08:09:01;3.73;;;1.47;;
19364;SDS011;9818;48.382;10.850;2022-12-29T08:11:29;2.90;;;1.80;;
19364;SDS011;9818;48.382;10.850;2022-12-29T08:13:58;1.57;;;1.40;;
19364;SDS011;9818;48.382;10.850;2022-12-29T08:16:27;2.80;;;1.37;;
19364;SDS011;9818;48.382;10.850;2022-12-29T08:18:56;1.37;;;1.27;;
19364;SDS011;9818;48.382;10.850;2022-12-29T08:21:25;2.27;;;1.60;;
19364;SDS011;9818;48.382;10.850;2022-12-29T08:23:55;2.30;;;1.40;;
19364;SDS011;9818;48.382;10.850;2022-12-29T08:26:26;1.73;;;1.23;;
19364;SDS011;9818;48.382;10.850;2022-12-29T08:28:55;2.73;;;1.30;;
19364;SDS011;9818;48.382;10.850;2022-12-29T08:31:24;1.57;;;1.40;;
19364;SDS011;9818;48.382;10.850;2022-12-29T09:21:06;3.23;;;1.47;;
19364;SDS011;9818;48.382;10.850;2022-12-29T09:23:37;1.83;;;1.40;;
19364;SDS011;9818;48.382;10.850;2022-12-29T09:26:09;2.90;;;1.50;;
19364;SDS011;9818;48.382;10.850;2022-12-29T09:28:37;2.33;;;1.63;;
19364;SDS011;9818;48.382;10.850;2022-12-29T09:31:06;1.90;;;1.70;;
19364;SDS011;9818;48.382;10.850;2022-12-29T09:33:38;3.23;;;1.33;;
19364;SDS011;9818;48.382;10.850;2022-12-29T09:36:07;1.60;;;1.30;;
19364;SDS011;9818;48.382;10.850;2022-12-29T09:38:36;1.77;;;1.30;;
19364;SDS011;9818;48.382;10.850;2022-12-29T09:41:08;2.40;;;1.50;;
19364;SDS011;9818;48.382;10.850;2022-12-29T09:43:49;1.63;;;1.20;;
19364;SDS011;9818;48.382;10.850;2022-12-29T09:46:31;2.17;;;1.37;;
19364;SDS011;9818;48.382;10.850;2022-12-29T09:49:16;1.93;;;1.40;;
19364;SDS011;9818;48.382;10.850;2022-12-29T09:51:53;2.00;;;1.10;;
19364;SDS011;9818;48.382;10.850;2022-12-29T09:54:24;4.07;;;1.10;;
19364;SDS011;9818;48.382;10.850;2022-12-29T09:57:10;1.67;;;1.43;;
19364;SDS011;9818;48.382;10.850;2022-12-29T09:59:46;1.70;;;1.10;;
19364;SDS011;9818;48.382;10.850;2022-12-29T13:48:01;1.20;;;1.10;;
19364;SDS011;9818;48.382;10.850;2022-12-29T13:50:35;1.30;;;1.10;;
19364;SDS011;9818;48.382;10.850;2022-12-29T13:55:45;1.80;;;1.10;;
19364;SDS011;9818;48.382;10.850;2022-12-29T13:58:18;1.00;;;0.90;;
19364;SDS011;9818;48.382;10.850;2022-12-29T14:00:56;1.37;;;1.10;;
19364;SDS011;9818;48.382;10.850;2022-12-29T14:13:55;2.40;;;1.10;;
19364;SDS011;9818;48.382;10.850;2022-12-29T14:16:25;1.33;;;0.90;;
19364;SDS011;9818;48.382;10.850;2022-12-29T14:18:57;1.17;;;1.00;;
19364;SDS011;9818;48.382;10.850;2022-12-29T14:21:33;1.23;;;1.10;;
19364;SDS011;9818;48.382;10.850;2022-12-29T14:27:05;4.33;;;1.47;;
19364;SDS011;9818;48.382;10.850;2022-12-29T14:33:11;1.33;;;1.10;;
19364;SDS011;9818;48.382;10.850;2022-12-29T14:35:42;2.07;;;1.20;;
19364;SDS011;9818;48.382;10.850;2022-12-29T14:38:15;2.20;;;1.17;;
19364;SDS011;9818;48.382;10.850;2022-12-29T14:40:46;1.53;;;1.20;;
19364;SDS011;9818;48.382;10.850;2022-12-29T14:43:21;1.37;;;1.07;;
19364;SDS011;9818;48.382;10.850;2022-12-29T14:45:54;2.90;;;1.07;;
19364;SDS011;9818;48.382;10.850;2022-12-29T14:48:30;1.10;;;1.00;;
19364;SDS011;9818;48.382;10.850;2022-12-29T14:51:18;1.30;;;1.20;;
19364;SDS011;9818;48.382;10.850;2022-12-29T14:53:54;1.33;;;1.23;;
19364;SDS011;9818;48.382;10.850;2022-12-29T15:09:12;1.97;;;1.30;;
19364;SDS011;9818;48.382;10.850;2022-12-29T15:29:44;2.47;;;1.20;;
19364;SDS011;9818;48.382;10.850;2022-12-29T15:32:19;1.50;;;1.10;;
19364;SDS011;9818;48.382;10.850;2022-12-29T15:34:50;1.33;;;1.10;;
19364;SDS011;9818;48.382;10.850;2022-12-29T15:37:22;1.20;;;1.00;;
19364;SDS011;9818;48.382;10.850;2022-12-29T15:39:52;2.47;;;2.23;;
19364;SDS011;9818;48.382;10.850;2022-12-29T15:42:35;1.93;;;1.50;;
19364;SDS011;9818;48.382;10.850;2022-12-29T15:45:23;2.03;;;1.43;;
19364;SDS011;9818;48.382;10.850;2022-12-29T15:47:56;2.27;;;1.37;;
19364;SDS011;9818;48.382;10.850;2022-12-29T15:50:27;1.67;;;1.53;;
19364;SDS011;9818;48.382;10.850;2022-12-29T15:52:58;1.73;;;1.40;;
19364;SDS011;9818;48.382;10.850;2022-12-29T15:55:28;2.00;;;1.23;;
19364;SDS011;9818;48.382;10.850;2022-12-29T15:58:00;1.63;;;1.10;;
19364;SDS011;9818;48.382;10.850;2022-12-29T16:00:34;1.20;;;1.10;;
19364;SDS011;9818;48.382;10.850;2022-12-29T16:03:05;1.00;;;0.90;;
19364;SDS011;9818;48.382;10.850;2022-12-29T23:37:32;0.67;;;0.67;;
19364;SDS011;9818;48.382;10.850;2022-12-29T23:40:02;0.60;;;0.60;;
19364;SDS011;9818;48.382;10.850;2022-12-29T23:42:31;0.57;;;0.57;;
19364;SDS011;9818;48.382;10.850;2022-12-29T23:44:59;0.93;;;0.60;;
19364;SDS011;9818;48.382;10.850;2022-12-29T23:47:32;0.70;;;0.60;;
19364;SDS011;9818;48.382;10.850;2022-12-29T23:50:00;0.70;;;0.70;;
19364;SDS011;9818;48.382;10.850;2022-12-29T23:52:29;0.73;;;0.63;;
19364;SDS011;9818;48.382;10.850;2022-12-29T23:54:58;0.60;;;0.60;;
19364;SDS011;9818;48.382;10.850;2022-12-29T23:57:27;0.50;;;0.50;;
19364;SDS011;9818;48.382;10.850;2022-12-29T23:59:55;0.50;;;0.50;;
